sensor_id;sensor_type;location;lat;lon;timestamp;pressure;altitude;pressure_sealevel;temperature
25514;BMP180;48128;54.242;10.280;2023-10-13T00:00:40;100749.00;;;7.90
25514;BMP180;48128;54.242;10.280;2023-10-13T00:03:08;100746.00;;;7.90
25514;BMP180;48128;54.242;10.280;2023-10-13T00:05:45;100744.00;;;8.00
25514;BMP180;48128;54.242;10.280;2023-10-13T00:08:12;100745.00;;;8.00
25514;BMP180;48128;54.242;10.280;2023-10-13T00:10:41;100738.00;;;8.00
25514;BMP180;48128;54.242;10.280;2023-10-13T00:13:09;100736.00;;;8.10
25514;BMP180;48128;54.242;10.280;2023-10-13T00:15:42;100733.00;;;8.10
25514;BMP180;48128;54.242;10.280;2023-10-13T00:18:39;100728.00;;;8.20
25514;BMP180;48128;54.242;10.280;2023-10-13T00:21:09;100728.00;;;8.20
25514;BMP180;48128;54.242;10.280;2023-10-13T00:23:40;100737.00;;;8.30
25514;BMP180;48128;54.242;10.280;2023-10-13T00:26:27;100729.00;;;8.30
25514;BMP180;48128;54.242;10.280;2023-10-13T00:28:55;100730.00;;;8.40
25514;BMP180;48128;54.242;10.280;2023-10-13T00:31:39;100726.00;;;8.40
25514;BMP180;48128;54.242;10.280;2023-10-13T00:34:10;100712.00;;;8.40
25514;BMP180;48128;54.242;10.280;2023-10-13T00:36:52;100716.00;;;8.50
25514;BMP180;48128;54.242;10.280;2023-10-13T00:39:37;100690.00;;;8.50
25514;BMP180;48128;54.242;10.280;2023-10-13T00:42:07;100702.00;;;8.60
25514;BMP180;48128;54.242;10.280;2023-10-13T00:44:35;100701.00;;;8.60
25514;BMP180;48128;54.242;10.280;2023-10-13T00:47:10;100689.00;;;8.60
25514;BMP180;48128;54.242;10.280;2023-10-13T00:49:46;100689.00;;;8.70
25514;BMP180;48128;54.242;10.280;2023-10-13T00:52:15;100684.00;;;8.70
25514;BMP180;48128;54.242;10.280;2023-10-13T00:54:44;100689.00;;;8.80
25514;BMP180;48128;54.242;10.280;2023-10-13T00:57:15;100689.00;;;8.80
25514;BMP180;48128;54.242;10.280;2023-10-13T00:59:55;100690.00;;;8.80
25514;BMP180;48128;54.242;10.280;2023-10-13T01:02:23;100674.00;;;8.90
25514;BMP180;48128;54.242;10.280;2023-10-13T01:05:08;100669.00;;;8.90
25514;BMP180;48128;54.242;10.280;2023-10-13T01:07:37;100669.00;;;8.90
25514;BMP180;48128;54.242;10.280;2023-10-13T01:10:09;100676.00;;;8.90
25514;BMP180;48128;54.242;10.280;2023-10-13T01:12:40;100666.00;;;9.00
25514;BMP180;48128;54.242;10.280;2023-10-13T01:15:09;100666.00;;;9.00
25514;BMP180;48128;54.242;10.280;2023-10-13T01:17:37;100655.00;;;9.00
25514;BMP180;48128;54.242;10.280;2023-10-13T01:20:05;100655.00;;;9.00
25514;BMP180;48128;54.242;10.280;2023-10-13T01:22:34;100651.00;;;9.00
25514;BMP180;48128;54.242;10.280;2023-10-13T01:25:03;100648.00;;;9.10
25514;BMP180;48128;54.242;10.280;2023-10-13T01:27:37;100645.00;;;9.10
25514;BMP180;48128;54.242;10.280;2023-10-13T01:30:07;100647.00;;;9.20
25514;BMP180;48128;54.242;10.280;2023-10-13T01:32:50;100644.00;;;9.20
25514;BMP180;48128;54.242;10.280;2023-10-13T01:35:18;100642.00;;;9.30
25514;BMP180;48128;54.242;10.280;2023-10-13T01:38:03;100628.00;;;9.30
25514;BMP180;48128;54.242;10.280;2023-10-13T01:40:30;100625.00;;;9.30
25514;BMP180;48128;54.242;10.280;2023-10-13T01:43:01;100634.00;;;9.40
25514;BMP180;48128;54.242;10.280;2023-10-13T01:45:28;100618.00;;;9.40
25514;BMP180;48128;54.242;10.280;2023-10-13T01:47:58;100603.00;;;9.40
25514;BMP180;48128;54.242;10.280;2023-10-13T01:50:25;100605.00;;;9.40
25514;BMP180;48128;54.242;10.280;2023-10-13T01:52:57;100591.00;;;9.50
25514;BMP180;48128;54.242;10.280;2023-10-13T01:55:44;100575.00;;;9.50
25514;BMP180;48128;54.242;10.280;2023-10-13T01:58:14;100577.00;;;9.50
25514;BMP180;48128;54.242;10.280;2023-10-13T02:00:43;100576.00;;;9.50
25514;BMP180;48128;54.242;10.280;2023-10-13T02:03:11;100566.00;;;9.60
25514;BMP180;48128;54.242;10.280;2023-10-13T02:05:43;100580.00;;;9.60
25514;BMP180;48128;54.242;10.280;2023-10-13T02:08:17;100562.00;;;9.60
25514;BMP180;48128;54.242;10.280;2023-10-13T02:10:50;100550.00;;;9.70
25514;BMP180;48128;54.242;10.280;2023-10-13T02:13:17;100549.00;;;9.70
25514;BMP180;48128;54.242;10.280;2023-10-13T02:15:46;100537.00;;;9.80
25514;BMP180;48128;54.242;10.280;2023-10-13T02:18:15;100542.00;;;9.80
25514;BMP180;48128;54.242;10.280;2023-10-13T02:20:56;100533.00;;;9.80
25514;BMP180;48128;54.242;10.280;2023-10-13T02:23:30;100521.00;;;9.90
25514;BMP180;48128;54.242;10.280;2023-10-13T02:26:01;100516.00;;;9.90
25514;BMP180;48128;54.242;10.280;2023-10-13T02:28:30;100516.00;;;9.90
25514;BMP180;48128;54.242;10.280;2023-10-13T02:31:03;100510.00;;;10.00
25514;BMP180;48128;54.242;10.280;2023-10-13T02:33:31;100506.00;;;10.00
25514;BMP180;48128;54.242;10.280;2023-10-13T02:35:59;100497.00;;;10.10
25514;BMP180;48128;54.242;10.280;2023-10-13T02:38:31;100501.00;;;10.20
25514;BMP180;48128;54.242;10.280;2023-10-13T02:41:11;100494.00;;;10.20
25514;BMP180;48128;54.242;10.280;2023-10-13T02:43:38;100477.00;;;10.30
25514;BMP180;48128;54.242;10.280;2023-10-13T02:46:06;100480.00;;;10.30
25514;BMP180;48128;54.242;10.280;2023-10-13T02:48:33;100497.00;;;10.40
25514;BMP180;48128;54.242;10.280;2023-10-13T02:51:23;100474.00;;;10.40
25514;BMP180;48128;54.242;10.280;2023-10-13T02:54:04;100468.00;;;10.40
25514;BMP180;48128;54.242;10.280;2023-10-13T02:56:37;100462.00;;;10.50
25514;BMP180;48128;54.242;10.280;2023-10-13T02:59:04;100461.00;;;10.50
25514;BMP180;48128;54.242;10.280;2023-10-13T03:01:35;100462.00;;;10.60
25514;BMP180;48128;54.242;10.280;2023-10-13T03:04:03;100461.00;;;10.60
25514;BMP180;48128;54.242;10.280;2023-10-13T03:06:38;100448.00;;;10.70
25514;BMP180;48128;54.242;10.280;2023-10-13T03:09:08;100452.00;;;10.80
25514;BMP180;48128;54.242;10.280;2023-10-13T03:11:42;100445.00;;;10.80
25514;BMP180;48128;54.242;10.280;2023-10-13T03:14:19;100436.00;;;10.80
25514;BMP180;48128;54.242;10.280;2023-10-13T03:17:00;100439.00;;;10.90
25514;BMP180;48128;54.242;10.280;2023-10-13T03:19:33;100423.00;;;10.90
25514;BMP180;48128;54.242;10.280;2023-10-13T03:22:01;100425.00;;;10.90
25514;BMP180;48128;54.242;10.280;2023-10-13T03:24:39;100412.00;;;10.90
25514;BMP180;48128;54.242;10.280;2023-10-13T03:27:16;100403.00;;;11.00
25514;BMP180;48128;54.242;10.280;2023-10-13T03:29:49;100406.00;;;11.00
25514;BMP180;48128;54.242;10.280;2023-10-13T03:32:27;100396.00;;;11.00
25514;BMP180;48128;54.242;10.280;2023-10-13T03:34:57;100393.00;;;11.00
25514;BMP180;48128;54.242;10.280;2023-10-13T03:37:27;100395.00;;;11.10
25514;BMP180;48128;54.242;10.280;2023-10-13T03:40:14;100398.00;;;11.10
25514;BMP180;48128;54.242;10.280;2023-10-13T03:42:51;100384.00;;;11.10
25514;BMP180;48128;54.242;10.280;2023-10-13T03:45:43;100369.00;;;11.20
25514;BMP180;48128;54.242;10.280;2023-10-13T03:48:15;100383.00;;;11.20
25514;BMP180;48128;54.242;10.280;2023-10-13T03:51:01;100372.00;;;11.20
25514;BMP180;48128;54.242;10.280;2023-10-13T03:53:36;100369.00;;;11.30
25514;BMP180;48128;54.242;10.280;2023-10-13T03:56:06;100368.00;;;11.30
25514;BMP180;48128;54.242;10.280;2023-10-13T03:58:39;100353.00;;;11.30
25514;BMP180;48128;54.242;10.280;2023-10-13T04:01:13;100339.00;;;11.40
25514;BMP180;48128;54.242;10.280;2023-10-13T04:03:44;100338.00;;;11.40
25514;BMP180;48128;54.242;10.280;2023-10-13T04:06:38;100323.00;;;11.40
25514;BMP180;48128;54.242;10.280;2023-10-13T04:09:20;100332.00;;;11.40
25514;BMP180;48128;54.242;10.280;2023-10-13T04:12:06;100315.00;;;11.50
25514;BMP180;48128;54.242;10.280;2023-10-13T04:15:09;100308.00;;;11.50
25514;BMP180;48128;54.242;10.280;2023-10-13T04:17:36;100312.00;;;11.50
25514;BMP180;48128;54.242;10.280;2023-10-13T04:20:13;100314.00;;;11.60
25514;BMP180;48128;54.242;10.280;2023-10-13T04:22:42;100302.00;;;11.60
25514;BMP180;48128;54.242;10.280;2023-10-13T04:25:23;100311.00;;;11.60
25514;BMP180;48128;54.242;10.280;2023-10-13T04:27:59;100308.00;;;11.70
25514;BMP180;48128;54.242;10.280;2023-10-13T04:30:51;100296.00;;;11.70
25514;BMP180;48128;54.242;10.280;2023-10-13T04:33:29;100288.00;;;11.70
25514;BMP180;48128;54.242;10.280;2023-10-13T04:36:17;100286.00;;;11.70
25514;BMP180;48128;54.242;10.280;2023-10-13T04:39:03;100277.00;;;11.70
25514;BMP180;48128;54.242;10.280;2023-10-13T04:41:34;100273.00;;;11.80
25514;BMP180;48128;54.242;10.280;2023-10-13T04:44:15;100260.00;;;11.80
25514;BMP180;48128;54.242;10.280;2023-10-13T04:47:01;100255.00;;;11.80
25514;BMP180;48128;54.242;10.280;2023-10-13T04:49:34;100242.00;;;11.90
25514;BMP180;48128;54.242;10.280;2023-10-13T04:52:02;100245.00;;;11.90
25514;BMP180;48128;54.242;10.280;2023-10-13T04:54:37;100233.00;;;11.90
25514;BMP180;48128;54.242;10.280;2023-10-13T04:57:22;100229.00;;;12.00
25514;BMP180;48128;54.242;10.280;2023-10-13T04:59:59;100232.00;;;12.00
25514;BMP180;48128;54.242;10.280;2023-10-13T05:05:13;100212.00;;;12.00
25514;BMP180;48128;54.242;10.280;2023-10-13T05:07:52;100190.00;;;12.10
25514;BMP180;48128;54.242;10.280;2023-10-13T05:10:38;100189.00;;;12.10
25514;BMP180;48128;54.242;10.280;2023-10-13T05:13:23;100187.00;;;12.10
25514;BMP180;48128;54.242;10.280;2023-10-13T05:16:09;100185.00;;;12.20
25514;BMP180;48128;54.242;10.280;2023-10-13T05:18:59;100179.00;;;12.20
25514;BMP180;48128;54.242;10.280;2023-10-13T05:21:44;100174.00;;;12.20
25514;BMP180;48128;54.242;10.280;2023-10-13T05:24:30;100169.00;;;12.30
25514;BMP180;48128;54.242;10.280;2023-10-13T05:27:15;100174.00;;;12.30
25514;BMP180;48128;54.242;10.280;2023-10-13T05:30:01;100167.00;;;12.30
25514;BMP180;48128;54.242;10.280;2023-10-13T05:32:46;100163.00;;;12.30
25514;BMP180;48128;54.242;10.280;2023-10-13T05:35:32;100156.00;;;12.40
25514;BMP180;48128;54.242;10.280;2023-10-13T05:38:17;100150.00;;;12.40
25514;BMP180;48128;54.242;10.280;2023-10-13T05:41:03;100150.00;;;12.50
25514;BMP180;48128;54.242;10.280;2023-10-13T05:43:52;100144.00;;;12.50
25514;BMP180;48128;54.242;10.280;2023-10-13T05:46:37;100136.00;;;12.60
25514;BMP180;48128;54.242;10.280;2023-10-13T05:49:06;100134.00;;;12.60
25514;BMP180;48128;54.242;10.280;2023-10-13T05:51:53;100132.00;;;12.60
25514;BMP180;48128;54.242;10.280;2023-10-13T05:54:47;100121.00;;;12.70
25514;BMP180;48128;54.242;10.280;2023-10-13T05:57:32;100111.00;;;12.70
25514;BMP180;48128;54.242;10.280;2023-10-13T06:00:18;100112.00;;;12.80
25514;BMP180;48128;54.242;10.280;2023-10-13T06:03:03;100115.00;;;12.80
25514;BMP180;48128;54.242;10.280;2023-10-13T06:05:49;100112.00;;;12.80
25514;BMP180;48128;54.242;10.280;2023-10-13T06:08:35;100123.00;;;12.90
25514;BMP180;48128;54.242;10.280;2023-10-13T06:11:20;100110.00;;;12.90
25514;BMP180;48128;54.242;10.280;2023-10-13T06:14:06;100112.00;;;13.00
25514;BMP180;48128;54.242;10.280;2023-10-13T06:17:15;100116.00;;;13.10
25514;BMP180;48128;54.242;10.280;2023-10-13T06:20:00;100110.00;;;13.10
25514;BMP180;48128;54.242;10.280;2023-10-13T06:22:49;100117.00;;;13.10
25514;BMP180;48128;54.242;10.280;2023-10-13T06:25:35;100101.00;;;13.20
25514;BMP180;48128;54.242;10.280;2023-10-13T06:28:20;100090.00;;;13.20
25514;BMP180;48128;54.242;10.280;2023-10-13T06:31:06;100092.00;;;13.30
25514;BMP180;48128;54.242;10.280;2023-10-13T06:33:34;100095.00;;;13.30
25514;BMP180;48128;54.242;10.280;2023-10-13T06:36:03;100082.00;;;13.40
25514;BMP180;48128;54.242;10.280;2023-10-13T06:38:30;100087.00;;;13.40
25514;BMP180;48128;54.242;10.280;2023-10-13T06:41:04;100093.00;;;13.50
25514;BMP180;48128;54.242;10.280;2023-10-13T06:43:37;100074.00;;;13.50
25514;BMP180;48128;54.242;10.280;2023-10-13T06:46:10;100069.00;;;13.60
25514;BMP180;48128;54.242;10.280;2023-10-13T06:48:42;100070.00;;;13.60
25514;BMP180;48128;54.242;10.280;2023-10-13T06:51:10;100066.00;;;13.70
25514;BMP180;48128;54.242;10.280;2023-10-13T06:53:49;100058.00;;;13.80
25514;BMP180;48128;54.242;10.280;2023-10-13T06:56:23;100062.00;;;13.80
25514;BMP180;48128;54.242;10.280;2023-10-13T06:58:56;100056.00;;;13.90
25514;BMP180;48128;54.242;10.280;2023-10-13T07:01:27;100058.00;;;13.90
25514;BMP180;48128;54.242;10.280;2023-10-13T07:03:54;100047.00;;;14.00
25514;BMP180;48128;54.242;10.280;2023-10-13T07:06:28;100042.00;;;14.00
25514;BMP180;48128;54.242;10.280;2023-10-13T07:08:58;100040.00;;;14.10
25514;BMP180;48128;54.242;10.280;2023-10-13T07:11:30;100032.00;;;14.20
25514;BMP180;48128;54.242;10.280;2023-10-13T07:14:04;100027.00;;;14.20
25514;BMP180;48128;54.242;10.280;2023-10-13T07:16:57;100027.00;;;14.30
25514;BMP180;48128;54.242;10.280;2023-10-13T07:19:28;100029.00;;;14.30
25514;BMP180;48128;54.242;10.280;2023-10-13T07:21:59;100016.00;;;14.40
25514;BMP180;48128;54.242;10.280;2023-10-13T07:24:26;100018.00;;;14.40
25514;BMP180;48128;54.242;10.280;2023-10-13T07:27:06;100014.00;;;14.50
25514;BMP180;48128;54.242;10.280;2023-10-13T07:29:34;99996.00;;;14.50
25514;BMP180;48128;54.242;10.280;2023-10-13T07:32:02;99994.00;;;14.50
25514;BMP180;48128;54.242;10.280;2023-10-13T07:34:30;99991.00;;;14.60
25514;BMP180;48128;54.242;10.280;2023-10-13T07:37:02;99981.00;;;14.60
25514;BMP180;48128;54.242;10.280;2023-10-13T07:39:34;99985.00;;;14.70
25514;BMP180;48128;54.242;10.280;2023-10-13T07:42:02;99977.00;;;14.70
25514;BMP180;48128;54.242;10.280;2023-10-13T07:44:33;99965.00;;;14.80
25514;BMP180;48128;54.242;10.280;2023-10-13T07:47:02;99956.00;;;14.80
25514;BMP180;48128;54.242;10.280;2023-10-13T07:49:32;99952.00;;;14.90
25514;BMP180;48128;54.242;10.280;2023-10-13T07:52:00;99943.00;;;14.90
25514;BMP180;48128;54.242;10.280;2023-10-13T07:54:42;99937.00;;;14.90
25514;BMP180;48128;54.242;10.280;2023-10-13T07:57:10;99931.00;;;14.90
25514;BMP180;48128;54.242;10.280;2023-10-13T07:59:42;99923.00;;;15.00
25514;BMP180;48128;54.242;10.280;2023-10-13T08:02:18;99917.00;;;15.00
25514;BMP180;48128;54.242;10.280;2023-10-13T08:05:16;99916.00;;;15.10
25514;BMP180;48128;54.242;10.280;2023-10-13T08:07:56;99912.00;;;15.10
25514;BMP180;48128;54.242;10.280;2023-10-13T08:10:23;99923.00;;;15.20
25514;BMP180;48128;54.242;10.280;2023-10-13T08:12:51;99915.00;;;15.20
25514;BMP180;48128;54.242;10.280;2023-10-13T08:15:21;99906.00;;;15.30
25514;BMP180;48128;54.242;10.280;2023-10-13T08:17:59;99893.00;;;15.30
25514;BMP180;48128;54.242;10.280;2023-10-13T08:20:31;99891.00;;;15.30
25514;BMP180;48128;54.242;10.280;2023-10-13T08:23:05;99895.00;;;15.40
25514;BMP180;48128;54.242;10.280;2023-10-13T08:25:41;99895.00;;;15.40
25514;BMP180;48128;54.242;10.280;2023-10-13T08:28:26;99891.00;;;15.40
25514;BMP180;48128;54.242;10.280;2023-10-13T08:31:22;99879.00;;;15.50
25514;BMP180;48128;54.242;10.280;2023-10-13T08:33:51;99873.00;;;15.50
25514;BMP180;48128;54.242;10.280;2023-10-13T08:36:32;99866.00;;;15.60
25514;BMP180;48128;54.242;10.280;2023-10-13T08:38:59;99862.00;;;15.60
25514;BMP180;48128;54.242;10.280;2023-10-13T08:41:46;99854.00;;;15.60
25514;BMP180;48128;54.242;10.280;2023-10-13T08:44:44;99863.00;;;15.70
25514;BMP180;48128;54.242;10.280;2023-10-13T08:47:18;99864.00;;;15.70
25514;BMP180;48128;54.242;10.280;2023-10-13T08:49:52;99857.00;;;15.70
25514;BMP180;48128;54.242;10.280;2023-10-13T08:52:37;99853.00;;;15.80
25514;BMP180;48128;54.242;10.280;2023-10-13T08:55:12;99853.00;;;15.70
25514;BMP180;48128;54.242;10.280;2023-10-13T08:58:00;99867.00;;;15.70
25514;BMP180;48128;54.242;10.280;2023-10-13T09:00:42;99855.00;;;15.70
25514;BMP180;48128;54.242;10.280;2023-10-13T09:03:40;99852.00;;;15.70
25514;BMP180;48128;54.242;10.280;2023-10-13T09:06:12;99845.00;;;15.70
25514;BMP180;48128;54.242;10.280;2023-10-13T09:08:42;99838.00;;;15.70
25514;BMP180;48128;54.242;10.280;2023-10-13T09:11:34;99842.00;;;15.70
25514;BMP180;48128;54.242;10.280;2023-10-13T09:14:19;99832.00;;;15.70
25514;BMP180;48128;54.242;10.280;2023-10-13T09:17:04;99825.00;;;15.70
25514;BMP180;48128;54.242;10.280;2023-10-13T09:19:46;99810.00;;;15.70
25514;BMP180;48128;54.242;10.280;2023-10-13T09:22:27;99817.00;;;15.70
25514;BMP180;48128;54.242;10.280;2023-10-13T09:24:56;99802.00;;;15.70
25514;BMP180;48128;54.242;10.280;2023-10-13T09:27:32;99800.00;;;15.70
25514;BMP180;48128;54.242;10.280;2023-10-13T09:30:00;99803.00;;;15.70
25514;BMP180;48128;54.242;10.280;2023-10-13T09:32:45;99790.00;;;15.80
25514;BMP180;48128;54.242;10.280;2023-10-13T09:35:19;99785.00;;;15.80
25514;BMP180;48128;54.242;10.280;2023-10-13T09:37:50;99783.00;;;15.80
25514;BMP180;48128;54.242;10.280;2023-10-13T09:40:18;99783.00;;;15.90
25514;BMP180;48128;54.242;10.280;2023-10-13T09:43:00;99770.00;;;15.90
25514;BMP180;48128;54.242;10.280;2023-10-13T09:45:34;99767.00;;;15.90
25514;BMP180;48128;54.242;10.280;2023-10-13T09:48:10;99767.00;;;15.90
25514;BMP180;48128;54.242;10.280;2023-10-13T09:50:45;99757.00;;;15.90
25514;BMP180;48128;54.242;10.280;2023-10-13T09:53:15;99764.00;;;15.90
25514;BMP180;48128;54.242;10.280;2023-10-13T09:55:47;99761.00;;;15.90
25514;BMP180;48128;54.242;10.280;2023-10-13T09:58:15;99757.00;;;15.80
25514;BMP180;48128;54.242;10.280;2023-10-13T10:00:50;99753.00;;;15.90
25514;BMP180;48128;54.242;10.280;2023-10-13T10:03:26;99736.00;;;16.00
25514;BMP180;48128;54.242;10.280;2023-10-13T10:06:21;99746.00;;;16.00
25514;BMP180;48128;54.242;10.280;2023-10-13T10:09:08;99737.00;;;16.20
25514;BMP180;48128;54.242;10.280;2023-10-13T10:17:28;99730.00;;;16.30
25514;BMP180;48128;54.242;10.280;2023-10-13T10:19:56;99745.00;;;16.30
25514;BMP180;48128;54.242;10.280;2023-10-13T10:22:31;99734.00;;;16.30
25514;BMP180;48128;54.242;10.280;2023-10-13T10:25:03;99724.00;;;16.30
25514;BMP180;48128;54.242;10.280;2023-10-13T10:27:33;99731.00;;;16.40
25514;BMP180;48128;54.242;10.280;2023-10-13T10:30:01;99728.00;;;16.40
25514;BMP180;48128;54.242;10.280;2023-10-13T10:32:37;99719.00;;;16.40
25514;BMP180;48128;54.242;10.280;2023-10-13T10:35:09;99720.00;;;16.40
25514;BMP180;48128;54.242;10.280;2023-10-13T10:37:42;99718.00;;;16.40
25514;BMP180;48128;54.242;10.280;2023-10-13T10:40:18;99704.00;;;16.40
25514;BMP180;48128;54.242;10.280;2023-10-13T10:43:13;99697.00;;;16.40
25514;BMP180;48128;54.242;10.280;2023-10-13T10:45:59;99693.00;;;16.30
25514;BMP180;48128;54.242;10.280;2023-10-13T10:48:31;99660.00;;;16.30
25514;BMP180;48128;54.242;10.280;2023-10-13T10:51:01;99638.00;;;16.40
25514;BMP180;48128;54.242;10.280;2023-10-13T10:53:34;99638.00;;;16.50
25514;BMP180;48128;54.242;10.280;2023-10-13T10:56:14;99648.00;;;16.40
25514;BMP180;48128;54.242;10.280;2023-10-13T10:58:48;99642.00;;;16.40
25514;BMP180;48128;54.242;10.280;2023-10-13T11:01:15;99629.00;;;16.40
25514;BMP180;48128;54.242;10.280;2023-10-13T11:06:26;99604.00;;;16.60
25514;BMP180;48128;54.242;10.280;2023-10-13T11:09:04;99606.00;;;16.80
25514;BMP180;48128;54.242;10.280;2023-10-13T11:11:31;99625.00;;;16.80
25514;BMP180;48128;54.242;10.280;2023-10-13T11:14:04;99604.00;;;16.80
25514;BMP180;48128;54.242;10.280;2023-10-13T11:16:47;99592.00;;;16.90
25514;BMP180;48128;54.242;10.280;2023-10-13T11:19:22;99595.00;;;17.00
25514;BMP180;48128;54.242;10.280;2023-10-13T11:22:20;99596.00;;;17.10
25514;BMP180;48128;54.242;10.280;2023-10-13T11:25:04;99576.00;;;17.20
25514;BMP180;48128;54.242;10.280;2023-10-13T11:28:13;99575.00;;;17.40
25514;BMP180;48128;54.242;10.280;2023-10-13T11:31:07;99567.00;;;17.50
25514;BMP180;48128;54.242;10.280;2023-10-13T11:33:58;99565.00;;;17.50
25514;BMP180;48128;54.242;10.280;2023-10-13T11:36:28;99548.00;;;17.50
25514;BMP180;48128;54.242;10.280;2023-10-13T11:39:21;99561.00;;;17.50
25514;BMP180;48128;54.242;10.280;2023-10-13T11:42:18;99532.00;;;17.70
25514;BMP180;48128;54.242;10.280;2023-10-13T11:45:03;99556.00;;;17.70
25514;BMP180;48128;54.242;10.280;2023-10-13T11:47:57;99528.00;;;17.70
25514;BMP180;48128;54.242;10.280;2023-10-13T11:50:30;99557.00;;;17.60
25514;BMP180;48128;54.242;10.280;2023-10-13T11:53:01;99503.00;;;17.60
25514;BMP180;48128;54.242;10.280;2023-10-13T11:55:34;99512.00;;;17.60
25514;BMP180;48128;54.242;10.280;2023-10-13T11:58:02;99523.00;;;17.50
25514;BMP180;48128;54.242;10.280;2023-10-13T12:00:32;99503.00;;;17.50
25514;BMP180;48128;54.242;10.280;2023-10-13T12:03:23;99491.00;;;17.50
25514;BMP180;48128;54.242;10.280;2023-10-13T12:06:09;99492.00;;;17.50
25514;BMP180;48128;54.242;10.280;2023-10-13T12:08:54;99504.00;;;17.40
25514;BMP180;48128;54.242;10.280;2023-10-13T12:11:22;99487.00;;;17.40
25514;BMP180;48128;54.242;10.280;2023-10-13T12:13:59;99471.00;;;17.50
25514;BMP180;48128;54.242;10.280;2023-10-13T12:16:38;99473.00;;;17.50
25514;BMP180;48128;54.242;10.280;2023-10-13T12:19:05;99477.00;;;17.60
25514;BMP180;48128;54.242;10.280;2023-10-13T12:21:37;99487.00;;;17.60
25514;BMP180;48128;54.242;10.280;2023-10-13T12:24:05;99472.00;;;17.60
25514;BMP180;48128;54.242;10.280;2023-10-13T12:26:40;99459.00;;;17.60
25514;BMP180;48128;54.242;10.280;2023-10-13T12:29:09;99440.00;;;17.60
25514;BMP180;48128;54.242;10.280;2023-10-13T12:31:49;99427.00;;;17.70
25514;BMP180;48128;54.242;10.280;2023-10-13T12:34:32;99425.00;;;17.80
25514;BMP180;48128;54.242;10.280;2023-10-13T12:37:19;99429.00;;;18.00
25514;BMP180;48128;54.242;10.280;2023-10-13T12:40:06;99431.00;;;18.10
25514;BMP180;48128;54.242;10.280;2023-10-13T12:42:53;99426.00;;;18.30
25514;BMP180;48128;54.242;10.280;2023-10-13T12:45:39;99414.00;;;18.40
25514;BMP180;48128;54.242;10.280;2023-10-13T12:48:25;99427.00;;;18.60
25514;BMP180;48128;54.242;10.280;2023-10-13T12:51:11;99418.00;;;18.70
25514;BMP180;48128;54.242;10.280;2023-10-13T12:53:49;99425.00;;;18.70
25514;BMP180;48128;54.242;10.280;2023-10-13T12:56:16;99424.00;;;18.70
25514;BMP180;48128;54.242;10.280;2023-10-13T12:58:43;99432.00;;;18.60
25514;BMP180;48128;54.242;10.280;2023-10-13T13:01:22;99417.00;;;18.50
25514;BMP180;48128;54.242;10.280;2023-10-13T13:03:50;99418.00;;;18.50
25514;BMP180;48128;54.242;10.280;2023-10-13T13:06:22;99409.00;;;18.60
25514;BMP180;48128;54.242;10.280;2023-10-13T13:08:52;99408.00;;;18.70
25514;BMP180;48128;54.242;10.280;2023-10-13T13:11:20;99397.00;;;19.00
25514;BMP180;48128;54.242;10.280;2023-10-13T13:13:50;99415.00;;;19.30
25514;BMP180;48128;54.242;10.280;2023-10-13T13:16:18;99424.00;;;19.50
25514;BMP180;48128;54.242;10.280;2023-10-13T13:18:49;99418.00;;;19.50
25514;BMP180;48128;54.242;10.280;2023-10-13T13:21:16;99413.00;;;19.50
25514;BMP180;48128;54.242;10.280;2023-10-13T13:23:52;99417.00;;;19.50
25514;BMP180;48128;54.242;10.280;2023-10-13T13:26:22;99389.00;;;19.40
25514;BMP180;48128;54.242;10.280;2023-10-13T13:28:49;99400.00;;;19.40
25514;BMP180;48128;54.242;10.280;2023-10-13T13:31:20;99401.00;;;19.50
25514;BMP180;48128;54.242;10.280;2023-10-13T13:33:52;99399.00;;;19.40
25514;BMP180;48128;54.242;10.280;2023-10-13T13:36:19;99397.00;;;19.40
25514;BMP180;48128;54.242;10.280;2023-10-13T13:38:46;99387.00;;;19.30
25514;BMP180;48128;54.242;10.280;2023-10-13T13:41:17;99387.00;;;19.40
25514;BMP180;48128;54.242;10.280;2023-10-13T13:43:44;99386.00;;;19.40
25514;BMP180;48128;54.242;10.280;2023-10-13T13:46:23;99383.00;;;19.40
25514;BMP180;48128;54.242;10.280;2023-10-13T13:49:00;99368.00;;;19.40
25514;BMP180;48128;54.242;10.280;2023-10-13T13:51:33;99350.00;;;19.40
25514;BMP180;48128;54.242;10.280;2023-10-13T13:54:01;99379.00;;;19.40
25514;BMP180;48128;54.242;10.280;2023-10-13T13:56:32;99364.00;;;19.40
25514;BMP180;48128;54.242;10.280;2023-10-13T13:59:05;99358.00;;;19.40
25514;BMP180;48128;54.242;10.280;2023-10-13T14:01:35;99359.00;;;19.40
25514;BMP180;48128;54.242;10.280;2023-10-13T14:04:05;99355.00;;;19.40
25514;BMP180;48128;54.242;10.280;2023-10-13T14:06:36;99375.00;;;19.40
25514;BMP180;48128;54.242;10.280;2023-10-13T14:09:08;99389.00;;;19.40
25514;BMP180;48128;54.242;10.280;2023-10-13T14:11:43;99392.00;;;19.40
25514;BMP180;48128;54.242;10.280;2023-10-13T14:17:23;99383.00;;;19.40
25514;BMP180;48128;54.242;10.280;2023-10-13T14:19:57;99395.00;;;19.40
25514;BMP180;48128;54.242;10.280;2023-10-13T14:22:25;99397.00;;;19.30
25514;BMP180;48128;54.242;10.280;2023-10-13T14:24:53;99389.00;;;19.30
25514;BMP180;48128;54.242;10.280;2023-10-13T14:27:23;99379.00;;;19.20
25514;BMP180;48128;54.242;10.280;2023-10-13T14:30:07;99376.00;;;19.20
25514;BMP180;48128;54.242;10.280;2023-10-13T14:32:34;99382.00;;;19.20
25514;BMP180;48128;54.242;10.280;2023-10-13T14:35:07;99395.00;;;19.10
25514;BMP180;48128;54.242;10.280;2023-10-13T14:37:41;99377.00;;;19.00
25514;BMP180;48128;54.242;10.280;2023-10-13T14:40:09;99360.00;;;19.00
25514;BMP180;48128;54.242;10.280;2023-10-13T14:42:39;99372.00;;;19.00
25514;BMP180;48128;54.242;10.280;2023-10-13T14:45:09;99360.00;;;18.90
25514;BMP180;48128;54.242;10.280;2023-10-13T14:47:43;99349.00;;;18.80
25514;BMP180;48128;54.242;10.280;2023-10-13T14:50:12;99340.00;;;18.80
25514;BMP180;48128;54.242;10.280;2023-10-13T14:53:00;99355.00;;;18.70
25514;BMP180;48128;54.242;10.280;2023-10-13T14:55:30;99333.00;;;18.60